createdAt,value
2023-02-28T00:01:31.440Z,93.80
2023-02-28T00:04:01.303Z,85.70
2023-02-28T00:06:34.169Z,97.68
2023-02-28T00:09:04.747Z,90.68
2023-02-28T00:11:41.305Z,143.32
2023-02-28T00:14:28.770Z,160.27
2023-02-28T00:16:59.509Z,155.65
2023-02-28T00:19:31.971Z,96.90
2023-02-28T00:22:05.370Z,94.05
2023-02-28T00:25:08.848Z,93.82
2023-02-28T00:27:39.718Z,57.78
2023-02-28T00:30:17.884Z,51.53
2023-02-28T00:32:55.400Z,72.30
2023-02-28T00:35:24.904Z,56.17
2023-02-28T00:38:03.588Z,55.97
2023-02-28T00:40:35.766Z,49.75
2023-02-28T00:43:05.738Z,55.13
2023-02-28T00:45:43.015Z,73.00
2023-02-28T00:48:16.135Z,54.25
2023-02-28T00:50:46.476Z,53.50
2023-02-28T00:53:17.290Z,65.40
2023-02-28T00:55:49.580Z,67.88
2023-02-28T00:58:18.251Z,44.50
2023-02-28T01:00:50.802Z,84.47
2023-02-28T01:03:21.289Z,91.32
2023-02-28T01:05:55.158Z,52.95
2023-02-28T01:08:27.253Z,29.92
2023-02-28T01:10:56.452Z,36.97
2023-02-28T01:13:26.473Z,32.40
2023-02-28T01:16:17.932Z,28.60
2023-02-28T01:18:54.492Z,28.48
2023-02-28T01:21:29.099Z,31.00
2023-02-28T01:24:00.232Z,30.92
2023-02-28T01:26:29.677Z,45.03
2023-02-28T01:28:59.496Z,50.42
2023-02-28T01:31:32.600Z,57.95
2023-02-28T01:34:01.920Z,60.35
2023-02-28T01:36:31.871Z,60.95
2023-02-28T01:39:14.292Z,45.28
2023-02-28T01:41:46.241Z,39.97
2023-02-28T01:44:54.699Z,39.30
2023-02-28T01:47:25.382Z,58.28
2023-02-28T01:50:00.049Z,69.43
2023-02-28T01:52:30.856Z,152.55
2023-02-28T01:55:09.057Z,119.65
2023-02-28T01:57:46.919Z,96.50
2023-02-28T02:00:24.818Z,87.25
2023-02-28T02:03:02.075Z,84.60
2023-02-28T02:05:32.790Z,101.35
2023-02-28T02:08:07.683Z,95.47
2023-02-28T02:11:02.210Z,94.65
2023-02-28T02:13:58.313Z,99.20
2023-02-28T02:16:28.877Z,94.47
2023-02-28T02:19:25.171Z,106.60
2023-02-28T02:22:29.170Z,179.05
2023-02-28T02:25:15.764Z,226.38
2023-02-28T02:28:10.080Z,255.02
2023-02-28T02:31:03.081Z,97.65
2023-02-28T02:34:01.853Z,83.30
2023-02-28T02:37:02.413Z,61.72
2023-02-28T02:40:00.403Z,51.88
2023-02-28T02:42:34.789Z,48.92
2023-02-28T02:45:19.282Z,53.47
2023-02-28T02:47:55.098Z,46.80
2023-02-28T02:50:34.937Z,43.75
2023-02-28T02:53:12.569Z,38.75
2023-02-28T02:55:48.042Z,34.90
2023-02-28T02:58:24.387Z,34.85
2023-02-28T03:00:57.548Z,32.72
2023-02-28T03:03:30.522Z,35.83
2023-02-28T03:06:07.470Z,31.85
2023-02-28T03:08:38.664Z,31.58
2023-02-28T03:11:15.136Z,36.75
2023-02-28T03:14:11.915Z,53.92
2023-02-28T03:17:24.771Z,51.72
2023-02-28T03:20:16.544Z,59.90
2023-02-28T03:23:09.633Z,60.67
2023-02-28T03:25:40.707Z,43.30
2023-02-28T03:28:33.058Z,46.60
2023-02-28T03:31:26.885Z,55.33
2023-02-28T03:34:08.730Z,44.67
2023-02-28T03:36:45.568Z,44.25
2023-02-28T03:39:25.554Z,38.47
2023-02-28T03:42:00.951Z,36.70
2023-02-28T03:44:39.494Z,154.13
2023-02-28T03:47:17.516Z,35.92
2023-02-28T03:49:58.701Z,30.48
2023-02-28T03:52:34.868Z,28.65
2023-02-28T03:55:10.420Z,29.38
2023-02-28T03:58:05.069Z,41.42
2023-02-28T04:00:51.733Z,29.85
2023-02-28T04:03:25.026Z,28.02
2023-02-28T04:06:01.758Z,28.92
2023-02-28T04:08:30.545Z,27.90
2023-02-28T04:11:19.925Z,32.88
2023-02-28T04:13:52.445Z,32.53
2023-02-28T04:16:35.176Z,34.80
2023-02-28T04:19:07.207Z,46.25
2023-02-28T04:21:43.649Z,50.90
2023-02-28T04:24:19.150Z,40.47
2023-02-28T04:26:51.334Z,45.00
2023-02-28T04:29:29.446Z,49.63
2023-02-28T04:32:01.939Z,56.03
2023-02-28T04:34:34.954Z,51.55
2023-02-28T04:37:14.723Z,45.95
2023-02-28T04:39:46.388Z,45.15
2023-02-28T04:42:17.767Z,46.13
2023-02-28T04:44:50.877Z,83.82
2023-02-28T04:47:20.614Z,66.57
2023-02-28T04:49:53.682Z,73.05
2023-02-28T04:52:24.348Z,51.85
2023-02-28T04:54:54.402Z,48.33
2023-02-28T04:57:26.812Z,42.72
2023-02-28T04:59:55.878Z,42.38
2023-02-28T05:02:25.051Z,37.15
2023-02-28T05:04:56.586Z,31.60
2023-02-28T05:07:26.283Z,31.50
2023-02-28T05:09:54.866Z,58.70
2023-02-28T05:12:24.186Z,64.90
2023-02-28T05:14:57.028Z,31.65
2023-02-28T05:17:28.259Z,35.83
2023-02-28T05:20:09.760Z,58.88
2023-02-28T05:22:42.807Z,55.47
2023-02-28T05:25:20.359Z,80.35
2023-02-28T05:27:50.776Z,112.75
2023-02-28T05:30:29.443Z,129.38
2023-02-28T05:33:12.503Z,81.60
2023-02-28T05:35:44.408Z,103.50
2023-02-28T05:38:14.109Z,67.55
2023-02-28T05:40:49.181Z,58.25
2023-02-28T05:47:58.582Z,60.15
2023-02-28T05:55:00.894Z,46.03
2023-02-28T05:57:30.640Z,62.65
2023-02-28T05:59:59.247Z,64.53
2023-02-28T06:02:30.119Z,72.88
2023-02-28T06:05:00.715Z,59.03
2023-02-28T06:07:29.819Z,125.53
2023-02-28T06:10:14.932Z,246.15
2023-02-28T06:12:43.776Z,116.88
2023-02-28T06:15:16.207Z,97.75
2023-02-28T06:17:58.923Z,120.43
2023-02-28T06:20:40.197Z,136.02
2023-02-28T06:23:11.050Z,204.40
2023-02-28T06:25:50.966Z,210.25
2023-02-28T06:28:21.557Z,144.27
2023-02-28T06:30:51.303Z,185.25
2023-02-28T06:33:19.972Z,192.15
2023-02-28T06:35:52.718Z,168.82
2023-02-28T06:41:57.949Z,173.15
2023-02-28T06:44:40.108Z,147.10
2023-02-28T06:47:13.377Z,177.48
2023-02-28T06:49:46.535Z,126.50
2023-02-28T06:52:15.994Z,124.10
2023-02-28T06:54:48.726Z,86.90
2023-02-28T06:57:18.016Z,77.90
2023-02-28T06:59:46.599Z,71.97
2023-02-28T07:02:18.499Z,49.85
2023-02-28T07:04:58.354Z,48.58
2023-02-28T07:07:27.244Z,51.13
2023-02-28T07:09:58.579Z,52.17
2023-02-28T07:12:29.375Z,80.72
2023-02-28T07:15:01.281Z,229.32
2023-02-28T07:17:30.392Z,142.32
2023-02-28T07:20:00.856Z,110.32
2023-02-28T07:22:30.956Z,120.82
2023-02-28T07:25:03.348Z,153.27
2023-02-28T07:27:33.196Z,135.35
2023-02-28T07:30:02.827Z,204.18
2023-02-28T07:32:33.536Z,110.65
2023-02-28T07:35:02.645Z,523.20
2023-02-28T07:37:37.949Z,74.28
2023-02-28T07:40:09.602Z,116.72
2023-02-28T07:42:38.744Z,125.10
2023-02-28T07:45:13.346Z,102.03
2023-02-28T07:47:45.790Z,57.15
2023-02-28T07:50:19.737Z,283.08
2023-02-28T07:52:48.551Z,90.50
2023-02-28T07:55:30.184Z,228.90
2023-02-28T07:58:02.611Z,135.27
2023-02-28T08:00:33.836Z,85.25
2023-02-28T08:03:04.847Z,72.13
2023-02-28T08:05:35.036Z,61.17
2023-02-28T08:08:04.322Z,69.57
2023-02-28T08:10:37.306Z,100.43
2023-02-28T08:13:12.728Z,101.65
2023-02-28T08:15:43.505Z,60.03
2023-02-28T08:18:14.545Z,31.85
2023-02-28T08:20:48.250Z,46.13
2023-02-28T08:23:21.251Z,62.38
2023-02-28T08:26:06.827Z,45.85
2023-02-28T08:28:36.750Z,26.70
2023-02-28T08:31:12.825Z,32.53
2023-02-28T08:33:42.637Z,22.38
2023-02-28T08:36:13.124Z,18.10
2023-02-28T08:39:15.790Z,29.05
2023-02-28T08:42:35.320Z,24.20
2023-02-28T08:45:10.742Z,22.05
2023-02-28T08:47:39.345Z,23.90
2023-02-28T08:50:13.417Z,23.20
2023-02-28T08:52:44.654Z,29.48
2023-02-28T08:56:31.227Z,41.20
2023-02-28T08:59:03.609Z,23.05
2023-02-28T09:01:47.569Z,33.90
2023-02-28T09:04:20.719Z,11.18
2023-02-28T09:06:57.219Z,15.32
2023-02-28T09:09:28.802Z,25.27
2023-02-28T09:13:10.548Z,11.23
2023-02-28T09:15:42.668Z,17.63
2023-02-28T09:18:11.870Z,37.70
2023-02-28T09:20:41.091Z,27.08
2023-02-28T09:23:11.796Z,29.02
2023-02-28T09:25:47.448Z,64.28
2023-02-28T09:28:18.906Z,27.27
2023-02-28T09:30:52.461Z,13.80
2023-02-28T09:33:22.154Z,15.15
2023-02-28T09:35:52.748Z,16.55
2023-02-28T09:38:22.383Z,12.50
2023-02-28T09:41:05.592Z,17.42
2023-02-28T09:43:42.078Z,16.83
2023-02-28T09:46:42.759Z,47.08
2023-02-28T09:49:44.892Z,18.50
2023-02-28T09:52:32.783Z,11.68
2023-02-28T09:55:47.181Z,13.30
2023-02-28T09:58:56.147Z,19.00
2023-02-28T10:01:45.247Z,13.90
2023-02-28T10:04:46.566Z,12.15
2023-02-28T10:07:29.983Z,11.43
2023-02-28T10:10:03.662Z,103.55
2023-02-28T10:12:41.626Z,87.45
2023-02-28T10:15:17.684Z,8.73
2023-02-28T10:18:00.737Z,9.25
2023-02-28T10:20:38.375Z,116.25
2023-02-28T10:23:28.830Z,8.68
2023-02-28T10:26:05.498Z,51.60
2023-02-28T10:28:41.459Z,18.42
2023-02-28T10:31:18.796Z,15.73
2023-02-28T10:33:48.237Z,36.42
2023-02-28T10:36:20.707Z,16.65
2023-02-28T10:38:54.061Z,26.75
2023-02-28T10:41:33.026Z,45.85
2023-02-28T10:44:22.087Z,25.65
2023-02-28T10:46:58.869Z,27.23
2023-02-28T10:49:30.282Z,16.30
2023-02-28T10:52:06.500Z,12.25
2023-02-28T10:54:37.679Z,8.00
2023-02-28T10:57:21.222Z,23.08
2023-02-28T10:59:56.671Z,12.23
2023-02-28T11:02:39.379Z,35.40
2023-02-28T11:05:39.980Z,18.13
2023-02-28T11:08:21.274Z,21.88
2023-02-28T11:10:58.497Z,24.40
2023-02-28T11:13:39.169Z,14.45
2023-02-28T11:16:12.812Z,21.48
2023-02-28T11:18:50.936Z,15.77
2023-02-28T11:21:41.265Z,20.42
2023-02-28T11:24:32.227Z,31.27
2023-02-28T11:27:02.952Z,16.15
2023-02-28T11:29:36.346Z,16.20
2023-02-28T11:32:10.127Z,13.15
2023-02-28T11:34:40.512Z,12.80
2023-02-28T11:37:20.086Z,18.48
2023-02-28T11:39:50.695Z,10.15
2023-02-28T11:42:44.906Z,12.52
2023-02-28T11:45:54.720Z,26.40
2023-02-28T11:48:53.799Z,20.50
2023-02-28T11:51:48.368Z,13.63
2023-02-28T11:54:34.189Z,30.90
2023-02-28T11:57:23.093Z,9.50
2023-02-28T12:00:48.972Z,16.33
2023-02-28T12:03:22.957Z,7.43
2023-02-28T12:06:19.506Z,181.98
2023-02-28T12:08:57.310Z,12.57
2023-02-28T12:11:43.791Z,21.25
2023-02-28T12:15:04.422Z,21.20
2023-02-28T12:18:01.702Z,20.67
2023-02-28T12:20:59.708Z,11.73
2023-02-28T12:23:46.556Z,16.40
2023-02-28T12:26:36.549Z,61.20
2023-02-28T12:29:20.710Z,13.35
2023-02-28T12:32:04.061Z,10.55
2023-02-28T12:34:38.571Z,18.00
2023-02-28T12:37:21.551Z,10.30
2023-02-28T12:39:55.499Z,9.15
2023-02-28T12:42:36.307Z,8.18
2023-02-28T12:48:58.550Z,13.52
2023-02-28T12:51:31.033Z,23.10
2023-02-28T12:54:14.341Z,17.75
2023-02-28T12:57:01.664Z,22.73
2023-02-28T13:00:03.071Z,11.18
2023-02-28T13:03:03.748Z,26.40
2023-02-28T13:05:55.963Z,11.32
2023-02-28T13:08:59.377Z,15.55
2023-02-28T13:11:42.292Z,19.33
2023-02-28T13:14:40.783Z,28.50
2023-02-28T13:17:13.066Z,47.85
2023-02-28T13:19:59.779Z,17.10
2023-02-28T13:22:45.950Z,69.07
2023-02-28T13:25:39.155Z,11.38
2023-02-28T13:28:13.193Z,26.27
2023-02-28T13:30:57.841Z,47.13
2023-02-28T13:33:52.146Z,54.08
2023-02-28T13:36:44.428Z,16.80
2023-02-28T13:39:36.483Z,13.73
2023-02-28T13:42:29.197Z,10.70
2023-02-28T13:45:03.226Z,12.88
2023-02-28T13:47:48.819Z,42.45
2023-02-28T13:50:42.405Z,9.80
2023-02-28T13:53:14.195Z,29.80
2023-02-28T13:55:51.497Z,9.82
2023-02-28T13:58:20.451Z,14.32
2023-02-28T14:01:25.053Z,13.98
2023-02-28T14:04:36.133Z,19.63
2023-02-28T14:07:08.053Z,33.92
2023-02-28T14:09:47.652Z,23.75
2023-02-28T14:13:01.697Z,44.75
2023-02-28T14:15:51.267Z,13.38
2023-02-28T14:18:25.753Z,14.23
2023-02-28T14:21:05.225Z,17.60
2023-02-28T14:23:53.248Z,27.33
2023-02-28T14:27:08.091Z,31.90
2023-02-28T14:30:14.909Z,20.95
2023-02-28T14:33:29.067Z,14.57
2023-02-28T14:36:36.458Z,192.00
2023-02-28T14:39:16.521Z,95.28
2023-02-28T14:41:48.298Z,22.85
2023-02-28T14:44:30.620Z,77.28
2023-02-28T14:47:10.556Z,75.75
2023-02-28T14:49:49.403Z,57.78
2023-02-28T14:52:44.512Z,54.03
2023-02-28T14:55:18.837Z,113.07
2023-02-28T14:57:59.201Z,25.52
2023-02-28T15:00:33.339Z,80.07
2023-02-28T15:03:32.824Z,64.43
2023-02-28T15:06:19.300Z,160.90
2023-02-28T15:08:48.703Z,82.13
2023-02-28T15:11:23.388Z,165.82
2023-02-28T15:13:59.970Z,106.07
2023-02-28T15:16:44.844Z,237.15
2023-02-28T15:19:25.643Z,88.13
2023-02-28T15:22:10.022Z,51.58
2023-02-28T15:29:56.994Z,39.78
2023-02-28T15:32:31.492Z,18.52
2023-02-28T15:35:18.520Z,34.33
2023-02-28T15:37:53.353Z,30.33
2023-02-28T15:40:37.293Z,53.78
2023-02-28T15:43:18.268Z,27.65
2023-02-28T15:45:48.999Z,28.02
2023-02-28T15:48:40.416Z,27.95
2023-02-28T15:51:13.221Z,116.40
2023-02-28T15:54:01.809Z,62.70
2023-02-28T15:56:32.499Z,162.70
2023-02-28T15:59:06.867Z,52.63
2023-02-28T16:01:40.138Z,38.97
2023-02-28T16:04:37.895Z,50.55
2023-02-28T16:10:15.491Z,167.20
2023-02-28T16:12:58.975Z,343.65
2023-02-28T16:19:13.712Z,28.00
2023-02-28T16:21:46.793Z,57.08
2023-02-28T16:24:27.185Z,52.45
2023-02-28T16:27:01.876Z,84.50
2023-02-28T16:29:37.625Z,66.95
2023-02-28T16:32:29.913Z,121.80
2023-02-28T16:38:33.824Z,43.05
2023-02-28T16:41:13.097Z,38.25
2023-02-28T16:43:49.532Z,35.60
2023-02-28T16:46:19.731Z,42.80
2023-02-28T16:48:52.539Z,55.42
2023-02-28T16:51:33.484Z,143.05
2023-02-28T16:54:03.773Z,148.93
2023-02-28T16:56:37.650Z,165.82
2023-02-28T16:59:07.129Z,132.95
2023-02-28T17:01:36.941Z,101.75
2023-02-28T17:04:13.363Z,177.43
2023-02-28T17:06:43.873Z,469.05
2023-02-28T17:09:40.131Z,109.78
2023-02-28T17:14:42.380Z,102.78
2023-02-28T17:17:29.468Z,180.45
2023-02-28T17:19:58.493Z,249.27
2023-02-28T17:22:28.577Z,185.88
2023-02-28T17:25:15.749Z,180.98
2023-02-28T17:27:46.894Z,183.15
2023-02-28T17:30:24.898Z,244.98
2023-02-28T17:32:54.713Z,508.63
2023-02-28T17:35:33.829Z,297.75
2023-02-28T17:38:04.922Z,439.48
2023-02-28T17:40:44.014Z,234.48
2023-02-28T17:43:18.127Z,145.07
2023-02-28T17:45:52.771Z,289.27
2023-02-28T17:48:24.853Z,768.50
2023-02-28T17:50:57.857Z,658.70
2023-02-28T17:53:28.549Z,154.38
2023-02-28T17:55:59.742Z,133.80
2023-02-28T17:58:29.628Z,124.95
2023-02-28T18:01:04.906Z,89.20
2023-02-28T18:03:34.464Z,100.20
2023-02-28T18:06:06.310Z,146.07
2023-02-28T18:08:39.672Z,122.15
2023-02-28T18:11:18.264Z,193.90
2023-02-28T18:14:08.162Z,109.47
2023-02-28T18:16:51.772Z,85.95
2023-02-28T18:19:21.331Z,69.60
2023-02-28T18:21:54.557Z,97.75
2023-02-28T18:24:32.801Z,121.72
2023-02-28T18:27:02.663Z,108.05
2023-02-28T18:29:33.067Z,88.65
2023-02-28T18:32:04.829Z,86.88
2023-02-28T18:34:34.258Z,99.13
2023-02-28T18:37:07.943Z,71.18
2023-02-28T18:39:37.388Z,82.35
2023-02-28T18:42:09.941Z,123.88
2023-02-28T18:44:39.286Z,78.53
2023-02-28T18:47:08.765Z,89.93
2023-02-28T18:49:38.502Z,142.30
2023-02-28T18:52:09.248Z,124.35
2023-02-28T18:54:39.827Z,112.35
2023-02-28T18:57:10.613Z,129.77
2023-02-28T18:59:41.482Z,283.27
2023-02-28T19:02:16.531Z,127.35
2023-02-28T19:04:47.357Z,95.85
2023-02-28T19:07:23.270Z,75.45
2023-02-28T19:09:54.145Z,88.15
2023-02-28T19:12:23.722Z,81.10
2023-02-28T19:14:54.398Z,67.88
2023-02-28T19:17:23.809Z,48.42
2023-02-28T19:19:54.415Z,83.57
2023-02-28T19:22:25.253Z,61.63
2023-02-28T19:24:56.556Z,61.50
2023-02-28T19:27:33.888Z,63.00
2023-02-28T19:30:06.429Z,79.30
2023-02-28T19:32:36.847Z,72.97
2023-02-28T19:35:06.860Z,73.32
2023-02-28T19:37:41.052Z,76.00
2023-02-28T19:40:13.802Z,79.28
2023-02-28T19:42:43.817Z,69.07
2023-02-28T19:45:15.464Z,55.97
2023-02-28T19:47:47.594Z,63.92
2023-02-28T19:50:16.969Z,81.13
2023-02-28T19:52:51.232Z,58.63
2023-02-28T19:55:21.577Z,61.17
2023-02-28T19:57:55.702Z,104.50
2023-02-28T20:00:26.728Z,115.75
2023-02-28T20:02:57.600Z,82.72
2023-02-28T20:05:26.822Z,75.85
2023-02-28T20:07:56.782Z,146.48
2023-02-28T20:10:25.822Z,239.00
2023-02-28T20:12:54.870Z,88.88
2023-02-28T20:15:23.964Z,199.68
2023-02-28T20:17:59.895Z,192.90
2023-02-28T20:20:29.668Z,245.95
2023-02-28T20:22:59.763Z,519.47
2023-02-28T20:25:32.986Z,783.88
2023-02-28T20:28:05.031Z,712.80
2023-02-28T20:30:36.687Z,164.27
2023-02-28T20:33:05.705Z,472.65
2023-02-28T20:35:34.384Z,105.43
2023-02-28T20:38:12.080Z,100.63
2023-02-28T20:43:09.188Z,136.25
2023-02-28T20:45:53.376Z,130.20
2023-02-28T20:48:32.034Z,102.55
2023-02-28T20:51:07.638Z,73.80
2023-02-28T20:53:40.007Z,74.40
2023-02-28T20:59:22.187Z,64.55
2023-02-28T21:02:32.984Z,64.18
2023-02-28T21:05:30.035Z,193.52
2023-02-28T21:08:00.601Z,160.27
2023-02-28T21:10:33.160Z,151.13
2023-02-28T21:13:04.053Z,106.18
2023-02-28T21:15:37.954Z,59.92
2023-02-28T21:18:07.031Z,51.22
2023-02-28T21:20:36.367Z,63.67
2023-02-28T21:23:06.708Z,62.92
2023-02-28T21:25:38.895Z,54.83
2023-02-28T21:28:08.984Z,84.90
2023-02-28T21:30:37.907Z,151.45
2023-02-28T21:33:07.042Z,141.32
2023-02-28T21:35:35.827Z,89.95
2023-02-28T21:38:04.742Z,65.85
2023-02-28T21:40:33.833Z,66.57
2023-02-28T21:43:04.175Z,89.75
2023-02-28T21:45:41.847Z,145.27
2023-02-28T21:48:10.750Z,153.10
2023-02-28T21:50:40.348Z,119.82
2023-02-28T21:53:22.443Z,136.80
2023-02-28T21:55:50.670Z,155.05
2023-02-28T21:58:21.048Z,141.85
2023-02-28T22:00:50.822Z,83.80
2023-02-28T22:03:20.626Z,89.10
2023-02-28T22:05:50.617Z,68.20
2023-02-28T22:08:27.101Z,73.68
2023-02-28T22:10:57.452Z,71.05
2023-02-28T22:13:27.274Z,50.67
2023-02-28T22:15:56.821Z,46.75
2023-02-28T22:18:28.821Z,52.95
2023-02-28T22:20:59.770Z,47.38
2023-02-28T22:23:29.307Z,47.30
2023-02-28T22:26:05.355Z,49.38
2023-02-28T22:28:38.670Z,46.13
2023-02-28T22:31:34.138Z,134.13
2023-02-28T22:34:10.976Z,156.52
2023-02-28T22:36:43.273Z,89.72
2023-02-28T22:39:14.490Z,62.55
2023-02-28T22:41:50.292Z,45.33
2023-02-28T22:44:23.481Z,44.80
2023-02-28T22:46:58.541Z,43.67
2023-02-28T22:49:37.366Z,42.88
2023-02-28T22:54:55.947Z,164.35
2023-02-28T22:57:26.488Z,96.28
2023-02-28T23:03:49.425Z,97.05
2023-02-28T23:06:32.584Z,96.03
2023-02-28T23:09:06.268Z,82.18
2023-02-28T23:11:44.748Z,79.05
2023-02-28T23:14:21.054Z,62.58
2023-02-28T23:16:54.279Z,42.20
2023-02-28T23:19:32.783Z,34.70
2023-02-28T23:22:03.127Z,39.08
2023-02-28T23:24:34.057Z,42.03
2023-02-28T23:27:05.463Z,37.72
2023-02-28T23:29:37.901Z,48.17
2023-02-28T23:32:08.577Z,49.08
2023-02-28T23:34:38.687Z,52.15
2023-02-28T23:37:10.794Z,41.13
2023-02-28T23:39:39.296Z,39.22
2023-02-28T23:42:09.286Z,42.05
2023-02-28T23:44:39.078Z,45.03
2023-02-28T23:47:14.797Z,41.20
2023-02-28T23:50:32.240Z,44.78
2023-02-28T23:53:11.975Z,42.00
2023-02-28T23:58:17.617Z,53.67
